Time;durP1;ratioP1;P1;durP2;ratioP2;P2;SDS_P1;SDS_P2;PMS_P1;PMS_P2;Temp;Humidity;BMP_temperature;BMP_pressure;BME280_temperature;BME280_humidity;BME280_pressure;Samples;Min_cycle;Max_cycle;Signal;HPM_P1;HPM_P2
2024/02/28 00:04:32;;;;;;;19.95;9.32;;;;;;;3.32;64.61;100197.84;10505754;28;20059;-59
2024/02/28 00:09:34;;;;;;;22.20;10.45;;;;;;;3.30;64.76;100196.19;10509934;28;20052;-59
2024/02/28 00:14:36;;;;;;;22.40;9.65;;;;;;;3.16;64.82;100198.28;10508290;28;20417;-59
2024/02/28 00:19:38;;;;;;;24.23;10.70;;;;;;;3.03;65.21;100205.50;10508449;28;20058;-58
2024/02/28 00:24:40;;;;;;;20.92;8.32;;;;;;;3.09;64.72;100201.94;10490201;28;20052;-58
2024/02/28 00:29:42;;;;;;;21.60;9.68;;;;;;;2.99;65.78;100220.22;10506465;28;20048;-59
2024/02/28 00:34:44;;;;;;;23.83;10.55;;;;;;;2.96;65.84;100227.22;10506395;28;20040;-58
2024/02/28 00:39:46;;;;;;;23.08;10.25;;;;;;;3.01;65.91;100231.38;10489668;28;20055;-58
2024/02/28 00:44:48;;;;;;;20.40;9.05;;;;;;;3.20;65.46;100218.00;10489671;28;20894;-56
2024/02/28 00:49:50;;;;;;;21.00;9.75;;;;;;;3.31;64.89;100228.91;10506349;28;20050;-57
2024/02/28 00:54:52;;;;;;;28.27;10.45;;;;;;;3.34;65.01;100228.81;10506253;28;20129;-57
2024/02/28 00:59:55;;;;;;;18.08;8.98;;;;;;;3.51;64.81;100230.09;10508893;28;20396;-58
2024/02/28 01:04:57;;;;;;;18.60;8.85;;;;;;;3.74;64.48;100230.31;10515864;28;20215;-57
2024/02/28 01:09:59;;;;;;;20.77;9.40;;;;;;;3.85;64.18;100225.75;10513110;28;20086;-58
2024/02/28 01:15:01;;;;;;;19.58;9.25;;;;;;;3.91;64.32;100223.84;10513185;28;20427;-59
2024/02/28 01:20:05;;;;;;;19.52;9.60;;;;;;;3.95;64.35;100223.75;10513663;28;20058;-59
2024/02/28 01:25:08;;;;;;;19.38;8.93;;;;;;;4.14;64.30;100230.09;10477708;28;20040;-59
2024/02/28 01:30:10;;;;;;;21.42;9.63;;;;;;;4.27;63.91;100236.59;10516083;28;20094;-59
2024/02/28 01:35:13;;;;;;;20.08;10.10;;;;;;;4.31;64.01;100233.03;10511670;28;20036;-59
2024/02/28 01:40:15;;;;;;;22.00;10.32;;;;;;;4.36;63.81;100236.34;10487748;28;20052;-60
2024/02/28 01:45:17;;;;;;;24.08;11.38;;;;;;;4.49;63.66;100236.81;10474644;28;20052;-59
2024/02/28 01:50:20;;;;;;;25.35;10.55;;;;;;;4.55;63.66;100234.91;10495371;28;20508;-59
2024/02/28 01:55:22;;;;;;;20.65;9.85;;;;;;;4.60;63.46;100240.78;10506657;28;20124;-58
2024/02/28 02:00:27;;;;;;;21.92;9.75;;;;;;;4.68;63.40;100228.44;10512433;28;20052;-58
2024/02/28 02:05:29;;;;;;;23.80;9.45;;;;;;;4.78;63.12;100228.16;10511225;28;20050;-59
2024/02/28 02:10:33;;;;;;;20.50;9.52;;;;;;;4.79;63.00;100233.28;10480872;28;20052;-60
2024/02/28 02:15:35;;;;;;;19.63;9.13;;;;;;;4.74;63.00;100239.53;10495363;28;20067;-59
2024/02/28 02:20:44;;;;;;;20.73;8.57;;;;;;;4.64;63.35;100234.59;10514347;28;20068;-59
2024/02/28 02:25:47;;;;;;;18.48;8.80;;;;;;;4.72;63.18;100243.00;10490995;28;20040;-59
2024/02/28 02:30:49;;;;;;;19.25;8.90;;;;;;;4.70;63.03;100244.78;10508549;28;20051;-60
2024/02/28 02:35:53;;;;;;;20.83;9.25;;;;;;;4.59;63.24;100246.00;10509271;28;20118;-60
2024/02/28 02:40:55;;;;;;;19.70;8.98;;;;;;;4.47;63.24;100252.41;10513287;28;21320;-59
2024/02/28 02:45:57;;;;;;;23.50;9.18;;;;;;;4.39;63.43;100262.13;10526967;27;20774;-60
2024/02/28 02:50:59;;;;;;;21.10;8.98;;;;;;;4.37;63.49;100263.91;10507952;28;20040;-59
2024/02/28 02:56:04;;;;;;;22.42;9.65;;;;;;;4.41;63.34;100264.69;10509723;28;20040;-60
2024/02/28 03:01:06;;;;;;;25.75;9.57;;;;;;;4.50;63.16;100260.09;10511022;28;20485;-59
2024/02/28 03:06:09;;;;;;;23.27;10.63;;;;;;;4.40;63.39;100253.47;10509904;28;20040;-59
2024/02/28 03:11:12;;;;;;;21.52;9.90;;;;;;;4.51;63.43;100250.59;10511193;28;20128;-59
2024/02/28 03:16:15;;;;;;;20.20;8.88;;;;;;;4.55;63.09;100255.63;10505058;28;20039;-60
2024/02/28 03:21:17;;;;;;;21.48;9.73;;;;;;;4.52;63.17;100257.44;10501842;28;20044;-59
2024/02/28 03:26:19;;;;;;;19.80;8.90;;;;;;;4.60;62.98;100260.66;10491773;28;20508;-59
2024/02/28 03:31:21;;;;;;;22.90;9.55;;;;;;;4.47;63.26;100267.09;10509936;28;20108;-60
2024/02/28 03:36:23;;;;;;;19.05;9.40;;;;;;;4.55;63.24;100273.75;10486327;28;20056;-59
2024/02/28 03:41:25;;;;;;;24.83;11.15;;;;;;;4.39;63.31;100282.84;10490565;28;20047;-59
2024/02/28 03:46:27;;;;;;;19.08;8.65;;;;;;;4.41;63.37;100283.66;10508522;28;20434;-59
2024/02/28 03:51:29;;;;;;;22.90;9.38;;;;;;;4.42;63.31;100282.78;10506069;28;20125;-59
2024/02/28 03:56:31;;;;;;;21.58;9.70;;;;;;;4.42;63.35;100292.28;10483664;28;20066;-59
2024/02/28 04:01:33;;;;;;;20.50;9.15;;;;;;;4.48;63.27;100298.13;10487106;28;20055;-60
2024/02/28 04:06:35;;;;;;;19.17;8.38;;;;;;;4.47;63.20;100304.22;10508228;28;20055;-59
2024/02/28 04:11:38;;;;;;;19.13;8.18;;;;;;;4.50;63.18;100317.06;10482550;28;20055;-59
2024/02/28 04:16:44;;;;;;;24.52;9.07;;;;;;;4.55;62.98;100322.97;10507168;28;20124;-60
2024/02/28 04:21:46;;;;;;;23.02;9.43;;;;;;;4.42;63.15;100325.94;10508228;28;20046;-60
2024/02/28 04:26:48;;;;;;;22.75;10.15;;;;;;;4.39;63.26;100318.28;10505287;28;20705;-60
2024/02/28 04:31:50;;;;;;;24.73;9.77;;;;;;;4.41;63.53;100327.66;10508458;28;20502;-59
2024/02/28 04:36:52;;;;;;;22.80;9.68;;;;;;;4.56;63.33;100337.59;10505916;28;20040;-59
2024/02/28 04:41:55;;;;;;;23.38;9.20;;;;;;;4.60;62.93;100339.22;10507533;28;20446;-59
2024/02/28 04:46:57;;;;;;;21.38;8.85;;;;;;;4.72;62.73;100338.84;10506979;28;20426;-59
2024/02/28 04:51:59;;;;;;;23.63;9.25;;;;;;;4.67;62.75;100348.50;10504546;28;20040;-60
2024/02/28 04:57:02;;;;;;;23.00;9.07;;;;;;;4.74;62.78;100353.53;10505028;28;20032;-59
2024/02/28 05:02:05;;;;;;;21.23;8.63;;;;;;;4.78;62.52;100343.00;10485960;28;20051;-59
2024/02/28 05:07:07;;;;;;;27.02;10.05;;;;;;;4.80;62.52;100346.38;10506971;28;20048;-60
2024/02/28 05:12:09;;;;;;;24.23;10.52;;;;;;;4.79;62.45;100351.63;10504603;28;20040;-59
2024/02/28 05:17:11;;;;;;;19.92;10.20;;;;;;;4.78;62.48;100357.72;10469580;28;20460;-59
2024/02/28 05:22:13;;;;;;;25.38;10.02;;;;;;;4.81;62.33;100348.09;10508014;28;20036;-59
2024/02/28 05:27:15;;;;;;;25.98;11.27;;;;;;;4.68;62.46;100363.16;10503389;28;20072;-59
2024/02/28 05:32:18;;;;;;;20.92;8.75;;;;;;;4.67;62.37;100368.38;10506991;28;20112;-59
2024/02/28 05:37:20;;;;;;;20.52;9.98;;;;;;;4.62;62.09;100373.69;10502640;28;20305;-59
2024/02/28 05:42:22;;;;;;;23.00;9.88;;;;;;;4.51;62.01;100375.75;10500047;28;20105;-59
2024/02/28 05:47:24;;;;;;;22.88;8.50;;;;;;;4.52;62.29;100384.34;10509422;28;20048;-59
2024/02/28 05:52:27;;;;;;;19.30;9.63;;;;;;;4.63;62.27;100388.34;10493103;28;20048;-60
2024/02/28 05:57:29;;;;;;;19.85;8.90;;;;;;;4.72;62.09;100389.81;10508724;28;20816;-60
2024/02/28 06:02:31;;;;;;;20.77;8.35;;;;;;;4.78;61.97;100394.00;10494737;28;20059;-59
2024/02/28 06:07:33;;;;;;;15.15;8.38;;;;;;;4.76;61.78;100396.59;10514585;28;20079;-59
2024/02/28 06:12:35;;;;;;;22.50;8.43;;;;;;;4.71;61.90;100398.50;10512810;28;20055;-59
2024/02/28 06:17:37;;;;;;;22.42;9.13;;;;;;;4.70;61.92;100413.19;10512180;28;20391;-60
2024/02/28 06:22:40;;;;;;;21.13;9.10;;;;;;;4.57;61.92;100416.16;10511379;28;20056;-59
2024/02/28 06:27:42;;;;;;;24.25;9.60;;;;;;;4.56;62.07;100424.81;10491449;28;20463;-60
2024/02/28 06:32:44;;;;;;;18.42;8.70;;;;;;;4.53;62.12;100438.72;10511027;28;20051;-59
2024/02/28 06:37:49;;;;;;;19.63;8.40;;;;;;;4.59;61.97;100435.09;10512467;28;20381;-59
2024/02/28 06:42:51;;;;;;;20.17;8.35;;;;;;;4.61;61.77;100449.72;10512157;28;20076;-60
2024/02/28 06:47:54;;;;;;;22.00;9.32;;;;;;;4.63;61.57;100453.13;10512309;28;20052;-60
2024/02/28 06:52:56;;;;;;;25.25;9.32;;;;;;;4.52;61.41;100457.72;10476737;28;20036;-59
2024/02/28 06:57:58;;;;;;;19.40;9.18;;;;;;;4.29;61.90;100462.66;10505507;28;20492;-59
2024/02/28 07:03:00;;;;;;;24.63;8.98;;;;;;;4.02;62.27;100478.03;10486285;28;20215;-60
2024/02/28 07:08:03;;;;;;;21.05;8.88;;;;;;;4.24;62.16;100474.88;10510707;28;20408;-59
2024/02/28 07:13:05;;;;;;;23.75;8.52;;;;;;;4.25;61.76;100473.16;10509954;28;20131;-59
2024/02/28 07:18:08;;;;;;;18.90;7.95;;;;;;;4.39;61.43;100469.28;10497763;28;21440;-58
2024/02/28 07:23:10;;;;;;;21.85;8.52;;;;;;;4.41;61.37;100487.41;10505529;28;20109;-59
2024/02/28 07:28:12;;;;;;;20.48;7.97;;;;;;;4.58;61.13;100486.06;10508410;28;20059;-59
2024/02/28 07:33:14;;;;;;;19.35;7.88;;;;;;;4.69;60.79;100470.22;10510691;28;20043;-59
2024/02/28 07:38:19;;;;;;;17.88;7.53;;;;;;;4.86;60.20;100477.53;10507091;28;20070;-59
2024/02/28 07:43:22;;;;;;;20.83;7.93;;;;;;;4.87;60.25;100484.41;10525855;27;20052;-59
2024/02/28 07:48:24;;;;;;;21.38;8.38;;;;;;;4.46;60.37;100493.28;10489511;28;20051;-59
2024/02/28 07:53:26;;;;;;;17.15;7.35;;;;;;;4.54;60.56;100493.94;10467323;28;20048;-59
2024/02/28 07:58:28;;;;;;;18.73;8.55;;;;;;;4.68;60.51;100500.47;10506182;28;20136;-59
2024/02/28 08:03:30;;;;;;;21.65;7.78;;;;;;;4.85;60.27;100501.75;10507679;28;20052;-59
2024/02/28 08:08:33;;;;;;;20.67;8.77;;;;;;;4.77;60.61;100509.72;10496133;28;20388;-58
2024/02/28 08:13:35;;;;;;;20.73;8.40;;;;;;;4.95;60.00;100508.38;10490752;28;20112;-59
2024/02/28 08:18:37;;;;;;;16.58;7.88;;;;;;;5.09;59.67;100508.81;10479142;28;20182;-59
2024/02/28 08:23:39;;;;;;;19.23;8.60;;;;;;;5.25;59.71;100510.94;10505369;28;20039;-59
2024/02/28 08:28:41;;;;;;;18.77;8.10;;;;;;;5.31;59.50;100513.38;10506849;28;20072;-59
2024/02/28 08:33:43;;;;;;;20.17;7.60;;;;;;;5.47;59.01;100518.97;10488468;28;20093;-59
2024/02/28 08:38:46;;;;;;;18.48;7.43;;;;;;;5.52;59.00;100524.84;10502752;28;20050;-59
2024/02/28 08:43:48;;;;;;;17.40;7.78;;;;;;;5.45;59.12;100542.34;10484433;28;20044;-59
2024/02/28 08:48:50;;;;;;;20.45;8.50;;;;;;;5.60;58.84;100545.38;10503353;28;20048;-59
2024/02/28 08:53:53;;;;;;;19.33;8.10;;;;;;;5.84;58.35;100540.28;10502947;28;20040;-59
2024/02/28 08:58:55;;;;;;;20.88;9.13;;;;;;;5.64;58.54;100550.44;10502318;28;20113;-59
2024/02/28 09:03:57;;;;;;;22.05;9.15;;;;;;;5.69;58.14;100555.50;10501552;28;20071;-59
2024/02/28 09:08:59;;;;;;;19.65;9.02;;;;;;;5.83;58.41;100550.72;10497820;28;20052;-59
2024/02/28 09:14:03;;;;;;;20.33;9.05;;;;;;;5.95;57.93;100539.97;10508126;28;20385;-60
2024/02/28 09:19:05;;;;;;;18.65;8.38;;;;;;;6.08;57.51;100546.50;10487976;28;20190;-59
2024/02/28 09:24:08;;;;;;;17.33;7.20;;;;;;;6.42;57.49;100547.13;10513456;28;20042;-59
2024/02/28 09:29:10;;;;;;;22.92;9.15;;;;;;;6.54;57.00;100540.66;10514826;28;20205;-59
2024/02/28 09:34:12;;;;;;;21.38;9.15;;;;;;;6.64;56.84;100539.44;10515134;28;20051;-59
2024/02/28 09:39:16;;;;;;;21.25;9.27;;;;;;;6.84;56.46;100545.66;10516546;28;20047;-59
2024/02/28 09:44:23;;;;;;;17.25;8.48;;;;;;;6.71;56.47;100565.19;10512726;28;20055;-60
2024/02/28 09:49:27;;;;;;;19.80;8.77;;;;;;;6.82;56.40;100559.59;10530834;27;20137;-49
2024/02/28 09:54:29;;;;;;;19.65;7.97;;;;;;;7.03;55.92;100561.47;10524500;27;20171;-50
2024/02/28 09:59:33;;;;;;;22.02;10.05;;;;;;;7.39;55.14;100561.88;10522487;27;20052;-51
2024/02/28 10:04:53;;;;;;;25.30;8.85;;;;;;;7.42;55.33;100560.06;10491887;28;20048;-48
2024/02/28 10:09:55;;;;;;;21.95;10.25;;;;;;;7.59;54.88;100562.03;10494905;28;20070;-51
2024/02/28 10:15:00;;;;;;;21.17;8.93;;;;;;;7.58;54.47;100555.97;10511828;28;20044;-52
2024/02/28 10:20:04;;;;;;;20.38;8.48;;;;;;;7.61;54.54;100571.44;10510152;28;20048;-50
2024/02/28 10:25:06;;;;;;;22.77;9.98;;;;;;;7.78;53.88;100579.50;10512743;28;20048;-50
2024/02/28 10:30:09;;;;;;;20.15;8.65;;;;;;;7.89;54.06;100579.09;10507893;28;20044;-48
2024/02/28 10:35:15;;;;;;;20.33;8.95;;;;;;;7.94;53.41;100580.59;10506693;28;20143;-49
2024/02/28 10:40:17;;;;;;;19.60;8.32;;;;;;;8.07;53.20;100582.72;10489190;28;20047;-52
2024/02/28 10:45:20;;;;;;;19.83;8.40;;;;;;;8.02;53.56;100578.53;10504627;28;20718;-49
2024/02/28 10:50:45;;;;;;;21.58;8.95;;;;;;;7.43;54.04;100581.69;10506686;28;20048;-50
2024/02/28 10:55:49;;;;;;;20.40;8.10;;;;;;;7.94;53.50;100580.59;10509993;28;20048;-49
2024/02/28 11:00:52;;;;;;;18.15;7.70;;;;;;;8.02;53.11;100580.28;10510861;28;20291;-51
2024/02/28 11:05:55;;;;;;;17.27;8.80;;;;;;;8.29;52.75;100568.81;10510142;28;20414;-51
2024/02/28 11:10:59;;;;;;;15.68;7.78;;;;;;;8.60;52.39;100569.28;10510098;28;20105;-49
2024/02/28 11:16:09;;;;;;;18.08;8.45;;;;;;;8.29;51.76;100567.97;10510220;28;20173;-50
2024/02/28 11:21:17;;;;;;;26.92;9.23;;;;;;;7.98;53.11;100565.69;10493096;28;20060;-49
2024/02/28 11:26:21;;;;;;;19.00;7.63;;;;;;;8.44;52.32;100555.19;10476831;28;20240;-49
2024/02/28 11:31:23;;;;;;;18.02;7.88;;;;;;;8.34;52.47;100550.41;10505484;28;20317;-49
2024/02/28 11:36:25;;;;;;;18.27;7.93;;;;;;;8.31;52.35;100547.91;10510159;28;20040;-50
2024/02/28 11:41:28;;;;;;;17.83;7.97;;;;;;;7.97;52.37;100536.22;10511949;28;20044;-50
2024/02/28 11:46:30;;;;;;;21.13;8.52;;;;;;;7.86;52.82;100535.78;10491393;28;20127;-49
2024/02/28 11:51:32;;;;;;;20.63;8.57;;;;;;;7.95;52.88;100540.63;10511974;28;20047;-49
2024/02/28 11:56:34;;;;;;;17.48;7.32;;;;;;;7.93;52.91;100532.03;10491556;28;20043;-50
2024/02/28 12:01:38;;;;;;;19.60;8.30;;;;;;;7.79;52.90;100531.69;10508647;28;20495;-49
2024/02/28 12:06:42;;;;;;;15.10;6.43;;;;;;;8.02;52.47;100530.81;10509925;28;20055;-51
2024/02/28 12:11:46;;;;;;;19.17;9.13;;;;;;;8.28;52.40;100517.59;10510945;28;20076;-49
2024/02/28 12:16:48;;;;;;;15.75;6.72;;;;;;;8.25;52.61;100519.50;10492215;28;20040;-51
2024/02/28 12:21:52;;;;;;;17.90;8.00;;;;;;;8.54;52.37;100509.56;10509788;28;20040;-49
2024/02/28 12:26:54;;;;;;;17.08;7.82;;;;;;;8.65;52.10;100499.50;10510626;28;20043;-49
2024/02/28 12:31:56;;;;;;;20.38;8.10;;;;;;;8.55;52.01;100503.44;10508563;28;20040;-49
2024/02/28 12:36:59;;;;;;;17.63;8.05;;;;;;;8.69;51.88;100489.78;10510307;28;20264;-54
2024/02/28 12:42:02;;;;;;;15.43;7.68;;;;;;;8.84;52.23;100486.53;10525692;28;20135;-50
2024/02/28 12:47:04;;;;;;;23.98;9.15;;;;;;;9.30;51.57;100477.50;10509453;28;20248;-53
2024/02/28 12:52:07;;;;;;;19.05;8.43;;;;;;;9.13;51.63;100464.38;10509138;28;20121;-49
2024/02/28 12:57:12;;;;;;;16.52;7.63;;;;;;;9.41;51.12;100457.81;10512796;28;20044;-48
2024/02/28 13:02:15;;;;;;;19.75;8.50;;;;;;;9.36;51.16;100458.94;10499552;28;20048;-48
2024/02/28 13:07:21;;;;;;;17.52;8.07;;;;;;;9.51;50.82;100443.41;10493789;28;20055;-50
2024/02/28 13:12:23;;;;;;;16.52;8.00;;;;;;;9.54;50.43;100442.41;10513885;28;20069;-50
2024/02/28 13:17:26;;;;;;;17.25;7.38;;;;;;;9.72;50.09;100440.72;10517112;28;20730;-54
2024/02/28 13:22:28;;;;;;;17.38;8.50;;;;;;;9.45;49.96;100429.78;10499093;28;20051;-52
2024/02/28 13:27:30;;;;;;;19.60;8.07;;;;;;;9.39;50.47;100433.53;10515446;28;20044;-54
2024/02/28 13:32:32;;;;;;;20.70;8.02;;;;;;;9.39;50.22;100430.06;10515181;28;20055;-48
2024/02/28 13:37:34;;;;;;;18.00;8.23;;;;;;;9.38;50.00;100431.00;10515861;28;20036;-52
2024/02/28 13:42:39;;;;;;;17.90;8.68;;;;;;;9.43;50.36;100429.88;10480952;28;20185;-51
2024/02/28 13:47:46;;;;;;;20.63;7.50;;;;;;;9.42;50.13;100425.56;10498107;28;20189;-52
2024/02/28 13:52:53;;;;;;;20.23;7.80;;;;;;;9.52;50.19;100411.13;10514999;28;20060;-48
2024/02/28 13:57:57;;;;;;;19.58;7.70;;;;;;;9.74;50.28;100403.16;10497482;28;20096;-53
2024/02/28 14:03:02;;;;;;;17.13;8.07;;;;;;;10.08;49.71;100403.19;10495860;28;20047;-48
2024/02/28 14:08:08;;;;;;;15.13;7.38;;;;;;;10.16;49.04;100392.34;10508544;28;20051;-49
2024/02/28 14:13:12;;;;;;;16.27;7.45;;;;;;;9.87;48.63;100387.75;10515972;28;20051;-53
2024/02/28 14:18:15;;;;;;;16.65;7.00;;;;;;;9.90;49.91;100392.78;10530539;27;20722;-54
2024/02/28 14:23:21;;;;;;;16.60;7.40;;;;;;;10.02;49.54;100398.25;10496925;28;20044;-51
2024/02/28 14:28:31;;;;;;;17.80;7.60;;;;;;;10.07;49.35;100387.59;10514032;28;20056;-50
2024/02/28 14:33:36;;;;;;;15.15;6.80;;;;;;;10.15;49.70;100381.06;10530415;27;20491;-52
2024/02/28 14:38:40;;;;;;;15.93;7.40;;;;;;;10.20;49.60;100379.03;10513893;28;20051;-51
2024/02/28 14:43:49;;;;;;;13.90;6.32;;;;;;;10.41;49.57;100370.09;10514011;28;20538;-49
2024/02/28 14:48:53;;;;;;;13.65;6.35;;;;;;;10.53;49.29;100371.22;10513254;28;20059;-54
2024/02/28 14:53:57;;;;;;;16.60;7.22;;;;;;;10.37;49.52;100378.19;10494552;28;20044;-51
2024/02/28 14:59:01;;;;;;;15.05;6.68;;;;;;;10.34;49.11;100370.47;10513364;28;20044;-52
2024/02/28 15:04:05;;;;;;;16.02;7.20;;;;;;;10.32;49.20;100377.56;10513220;28;20044;-53
2024/02/28 15:09:09;;;;;;;12.68;6.65;;;;;;;10.22;49.54;100382.41;10510724;28;20060;-52
2024/02/28 15:14:13;;;;;;;12.60;6.07;;;;;;;10.20;49.55;100380.81;10511871;28;20047;-52
2024/02/28 15:19:20;;;;;;;12.00;6.22;;;;;;;10.21;49.01;100383.34;10494095;28;20047;-51
2024/02/28 15:24:23;;;;;;;12.95;6.00;;;;;;;10.06;49.52;100372.81;10512110;28;20636;-50
2024/02/28 15:29:27;;;;;;;13.00;6.20;;;;;;;9.89;49.54;100378.06;10512550;28;20085;-50
2024/02/28 15:34:39;;;;;;;14.57;6.97;;;;;;;9.97;50.09;100373.28;10509401;28;20047;-52
2024/02/28 15:39:44;;;;;;;13.50;6.30;;;;;;;9.88;50.31;100368.50;10527156;27;20052;-51
2024/02/28 15:44:46;;;;;;;13.38;6.50;;;;;;;9.87;50.40;100369.44;10511915;28;20043;-49
2024/02/28 15:49:49;;;;;;;13.60;6.25;;;;;;;9.74;50.35;100369.22;10493861;28;20040;-51
2024/02/28 15:54:53;;;;;;;13.23;5.45;;;;;;;9.63;50.38;100372.31;10492757;28;20522;-53
2024/02/28 15:59:59;;;;;;;16.10;6.32;;;;;;;9.61;50.51;100371.53;10493152;28;20344;-49
2024/02/28 16:05:14;;;;;;;13.00;5.85;;;;;;;9.60;50.44;100363.78;10492392;28;20056;-49
2024/02/28 16:10:17;;;;;;;14.70;6.38;;;;;;;9.59;50.43;100362.94;10509911;28;20062;-50
2024/02/28 16:15:22;;;;;;;12.55;6.30;;;;;;;9.49;50.63;100369.53;10491694;28;20105;-49
2024/02/28 16:20:25;;;;;;;13.23;6.35;;;;;;;9.40;50.84;100369.94;10491286;28;20054;-51
2024/02/28 16:25:29;;;;;;;12.82;5.82;;;;;;;9.29;51.20;100374.84;10508276;28;20074;-49
2024/02/28 16:30:33;;;;;;;15.02;6.35;;;;;;;9.19;51.31;100372.75;10508184;28;20404;-50
2024/02/28 16:35:36;;;;;;;14.20;5.90;;;;;;;9.00;51.96;100388.41;10490476;28;20046;-50
2024/02/28 16:40:39;;;;;;;15.45;6.95;;;;;;;8.92;52.36;100379.22;10509621;28;20051;-51
2024/02/28 16:45:43;;;;;;;13.50;6.35;;;;;;;8.85;52.73;100378.69;10488557;28;20048;-53
2024/02/28 16:50:45;;;;;;;16.00;6.85;;;;;;;8.67;53.26;100375.13;10504436;28;20307;-51
2024/02/28 16:55:47;;;;;;;12.48;5.70;;;;;;;8.56;53.22;100373.94;10504690;28;20046;-49
2024/02/28 17:00:49;;;;;;;14.95;6.63;;;;;;;8.47;53.37;100369.13;10508074;28;20056;-51
2024/02/28 17:05:52;;;;;;;15.00;6.93;;;;;;;8.43;53.57;100376.22;10504057;28;20143;-50
2024/02/28 17:10:54;;;;;;;13.98;6.15;;;;;;;8.35;53.78;100374.88;10508565;28;20051;-50
2024/02/28 17:16:02;;;;;;;13.48;5.90;;;;;;;8.28;53.95;100373.44;10490200;28;20044;-52
2024/02/28 17:21:04;;;;;;;17.90;7.25;;;;;;;8.19;54.29;100374.69;10507853;28;20094;-50
2024/02/28 17:26:07;;;;;;;13.95;6.22;;;;;;;8.14;54.31;100381.03;10507354;28;20127;-53
2024/02/28 17:31:09;;;;;;;13.75;6.35;;;;;;;8.14;53.99;100376.63;10491589;28;20502;-50
2024/02/28 17:36:11;;;;;;;15.00;6.45;;;;;;;7.94;54.48;100382.66;10487158;28;20058;-50
2024/02/28 17:41:13;;;;;;;14.13;6.53;;;;;;;7.81;54.82;100381.47;10476098;28;20052;-52
2024/02/28 17:46:15;;;;;;;13.48;7.30;;;;;;;7.68;54.91;100385.50;10498290;28;20059;-49
2024/02/28 17:51:17;;;;;;;12.35;5.78;;;;;;;7.65;54.97;100390.00;10513296;28;20044;-50
2024/02/28 17:56:20;;;;;;;13.93;7.00;;;;;;;7.50;55.59;100390.59;10515675;28;20055;-48
2024/02/28 18:01:22;;;;;;;20.65;8.75;;;;;;;7.47;55.72;100380.31;10498052;28;20142;-49
2024/02/28 18:06:24;;;;;;;20.95;8.13;;;;;;;7.39;55.95;100375.41;10512590;28;20119;-49
2024/02/28 18:11:26;;;;;;;19.73;7.88;;;;;;;7.27;56.43;100378.47;10514949;28;20044;-49
2024/02/28 18:16:29;;;;;;;16.77;6.85;;;;;;;7.22;56.63;100379.59;10495437;28;20043;-51
2024/02/28 18:21:34;;;;;;;16.05;6.53;;;;;;;7.15;56.80;100373.75;10514603;28;20543;-50
2024/02/28 18:26:36;;;;;;;16.75;7.32;;;;;;;7.12;57.09;100373.91;10514438;28;20051;-49
2024/02/28 18:31:39;;;;;;;19.90;6.78;;;;;;;7.12;57.10;100379.09;10512854;28;20745;-52
2024/02/28 18:36:41;;;;;;;13.85;6.05;;;;;;;7.10;57.28;100375.72;10496104;28;20189;-51
2024/02/28 18:41:43;;;;;;;15.13;6.03;;;;;;;7.03;57.44;100371.63;10495855;28;20036;-48
2024/02/28 18:46:45;;;;;;;13.65;6.72;;;;;;;6.98;57.52;100371.81;10490224;28;21282;-49
2024/02/28 18:51:47;;;;;;;14.95;7.28;;;;;;;6.83;57.62;100361.16;10504369;28;20162;-47
2024/02/28 18:56:50;;;;;;;12.52;6.35;;;;;;;6.75;57.84;100363.19;10508839;28;20079;-50
2024/02/28 19:01:54;;;;;;;15.65;5.90;;;;;;;6.68;58.06;100359.09;10506884;28;20048;-48
2024/02/28 19:06:56;;;;;;;12.70;5.93;;;;;;;6.56;58.26;100357.81;10490878;28;20058;-47
2024/02/28 19:11:58;;;;;;;12.45;5.75;;;;;;;6.44;58.36;100363.47;10491034;28;20524;-49
2024/02/28 19:17:02;;;;;;;9.88;4.97;;;;;;;6.20;58.78;100362.56;10491834;28;20054;-50
2024/02/28 19:22:04;;;;;;;13.35;6.00;;;;;;;6.06;59.33;100354.38;10512937;28;20044;-50
2024/02/28 19:27:06;;;;;;;12.43;4.88;;;;;;;6.10;59.21;100357.72;10512350;28;20503;-58
2024/02/28 19:32:09;;;;;;;14.07;6.63;;;;;;;6.10;59.20;100363.75;10512481;28;20086;-59
2024/02/28 19:37:12;;;;;;;12.48;5.30;;;;;;;6.04;59.24;100373.53;10510891;28;20064;-58
2024/02/28 19:42:14;;;;;;;12.80;5.50;;;;;;;5.97;59.42;100380.66;10493825;28;20143;-59
2024/02/28 19:47:16;;;;;;;15.82;6.00;;;;;;;5.96;59.59;100385.91;10510989;28;20047;-58
2024/02/28 19:52:18;;;;;;;20.88;6.13;;;;;;;5.86;59.72;100379.34;10506716;28;20044;-58
2024/02/28 19:57:20;;;;;;;15.10;6.97;;;;;;;5.80;59.76;100387.34;10487641;28;20123;-58
2024/02/28 20:02:22;;;;;;;16.80;6.50;;;;;;;5.70;59.83;100378.97;10504620;28;20616;-59
2024/02/28 20:07:24;;;;;;;14.55;6.97;;;;;;;5.66;60.24;100377.38;10493998;28;20048;-59
2024/02/28 20:12:27;;;;;;;13.93;6.28;;;;;;;5.61;60.14;100379.28;10506142;28;20110;-58
2024/02/28 20:17:29;;;;;;;12.73;5.47;;;;;;;5.57;60.23;100379.44;10506729;28;20048;-58
2024/02/28 20:22:32;;;;;;;12.98;5.68;;;;;;;5.51;60.47;100375.31;10468606;28;20059;-59
2024/02/28 20:27:34;;;;;;;14.30;5.82;;;;;;;5.39;60.51;100367.91;10506732;28;20427;-58
2024/02/28 20:32:36;;;;;;;13.18;5.60;;;;;;;5.17;60.69;100372.03;10505012;28;20058;-58
2024/02/28 20:37:39;;;;;;;14.10;6.40;;;;;;;5.09;60.95;100374.88;10504405;28;20391;-58
2024/02/28 20:42:41;;;;;;;10.10;5.18;;;;;;;5.14;61.31;100377.34;10502203;28;20043;-58
2024/02/28 20:47:43;;;;;;;12.00;5.72;;;;;;;5.30;61.14;100357.81;10470768;28;20385;-58
2024/02/28 20:52:46;;;;;;;13.55;5.35;;;;;;;5.48;61.14;100352.91;10502895;28;20051;-58
2024/02/28 20:57:48;;;;;;;11.65;5.75;;;;;;;5.47;60.75;100358.13;10467987;28;20140;-58
2024/02/28 21:02:51;;;;;;;10.32;5.25;;;;;;;5.36;60.91;100355.88;10504370;28;20052;-58
2024/02/28 21:07:53;;;;;;;9.85;5.45;;;;;;;5.37;60.93;100349.78;10504975;28;20056;-57
2024/02/28 21:12:58;;;;;;;8.73;4.70;;;;;;;5.36;60.86;100345.50;10524817;28;20446;-58
2024/02/28 21:18:01;;;;;;;11.20;5.32;;;;;;;5.42;60.96;100336.69;10513491;28;20610;-58
2024/02/28 21:23:03;;;;;;;12.30;5.95;;;;;;;5.42;60.94;100339.28;10516890;28;20044;-57
2024/02/28 21:28:05;;;;;;;12.85;4.97;;;;;;;5.37;60.93;100349.78;10514201;28;20043;-58
2024/02/28 21:33:08;;;;;;;11.73;5.25;;;;;;;5.18;61.05;100335.72;10517115;28;20044;-58
2024/02/28 21:38:11;;;;;;;13.10;6.25;;;;;;;5.16;61.36;100331.47;10515087;28;20055;-58
2024/02/28 21:43:15;;;;;;;10.55;5.05;;;;;;;5.17;61.51;100334.00;10515570;28;20356;-56
2024/02/28 21:48:20;;;;;;;9.55;4.57;;;;;;;5.18;61.25;100334.88;10485840;28;20446;-58
2024/02/28 21:53:23;;;;;;;12.18;4.72;;;;;;;5.17;61.37;100331.41;10515609;28;20134;-57
2024/02/28 21:58:29;;;;;;;10.57;5.03;;;;;;;5.12;61.40;100332.47;10497475;28;20704;-58
2024/02/28 22:03:31;;;;;;;13.30;5.57;;;;;;;5.08;61.37;100321.34;10515083;28;20915;-59
2024/02/28 22:08:34;;;;;;;11.55;5.35;;;;;;;5.00;61.36;100320.75;10512808;28;20504;-58
2024/02/28 22:13:38;;;;;;;12.30;4.80;;;;;;;4.91;61.61;100321.00;10496713;28;20055;-58
2024/02/28 22:18:41;;;;;;;8.63;5.05;;;;;;;4.79;61.65;100323.13;10512664;28;20119;-58
2024/02/28 22:23:44;;;;;;;7.78;4.20;;;;;;;4.69;61.91;100320.81;10515001;28;20425;-58
2024/02/28 22:28:47;;;;;;;13.25;5.90;;;;;;;4.61;61.95;100309.84;10512922;28;20094;-59
2024/02/28 22:33:49;;;;;;;13.02;5.72;;;;;;;4.49;62.04;100323.16;10514310;28;20044;-59
2024/02/28 22:38:52;;;;;;;11.20;5.53;;;;;;;4.33;62.37;100319.28;10513762;28;20106;-58
2024/02/28 22:43:55;;;;;;;10.80;5.55;;;;;;;4.20;62.39;100317.06;10513198;28;20044;-57
2024/02/28 22:49:03;;;;;;;11.93;5.72;;;;;;;4.09;62.77;100316.53;10512693;28;20484;-59
2024/02/28 22:54:07;;;;;;;11.77;5.15;;;;;;;4.08;62.65;100307.91;10513180;28;20147;-58
2024/02/28 22:59:09;;;;;;;11.32;4.95;;;;;;;4.01;62.68;100303.78;10513681;28;20316;-58
2024/02/28 23:04:11;;;;;;;9.90;4.50;;;;;;;3.94;62.77;100297.09;10512512;28;20507;-59
2024/02/28 23:09:16;;;;;;;10.88;4.57;;;;;;;3.88;62.88;100305.03;10512420;28;20235;-59
2024/02/28 23:14:18;;;;;;;13.65;4.97;;;;;;;3.81;62.95;100290.50;10495119;28;20048;-58